»·PEaware :: N801RC TAPA-TFFJ

N801RC :: TAPA-TFFJ

FLIGHT INFORMATION

Flight Status: Arrived
Operator: Privately registered:
United States
More flights under this callsign
Pilot: Ryan C. (15122)
Aircraft: CESSNA 172 SKYHAWK
(C172)
More flights by this aircraft type
Origin: TAPA V C Bird Intl
Antigua and Barbuda
Destination: TFFJ St Barthelemy Is.
Guadeloupe
More flights between these airports :: More routes between these airports
Route: TKPN TKPK TNCE TNCS TNCM
File this flight plan on PilotEdge
Remarks:
Altitude:
(Current/Filed)
2,000ft
Speed:
(Current/Filed)
120kts
Departed: 03-Feb-18 10:06 AM
Arrived: 03-Feb-18 12:24 PM
Distance/Time
Traveled:
76nm/2:18
Distance/Time
To Go:
Arrived

Flight Plot

Page will automatically refresh every two minutes.

Flight plan parsing failed; only flown route is shown


Map Options




Map Legend


Flown Route
Filed Route
Departure Airport
Arrival Airport
Navaid (VOR, NDB)
Fix

Horizontal Profiles

Position Reports

Time Latitude Longitude Heading Altitude Ground
Speed
03-Feb-18 09:56 17.137846 -61.794333 354 69ft 0kts
03-Feb-18 09:57 17.137846 -61.794333 354 69ft 0kts
03-Feb-18 09:58 17.137846 -61.794333 354 69ft 0kts
03-Feb-18 09:59 17.137846 -61.794333 354 69ft 0kts
03-Feb-18 10:00 17.137846 -61.794333 354 69ft 0kts
03-Feb-18 10:01 17.137846 -61.794333 354 69ft 0kts
03-Feb-18 10:02 17.137578 -61.794243 153 67ft 0kts
03-Feb-18 10:03 17.136978 -61.794457 237 66ft 12kts
03-Feb-18 10:04 17.136911 -61.794567 236 67ft 0kts
03-Feb-18 10:05 17.136829 -61.794705 238 68ft 0kts
03-Feb-18 10:06 17.136812 -61.794733 238 68ft 0kts
03-Feb-18 10:07 17.136812 -61.794733 238 68ft 0kts
03-Feb-18 10:08 17.136812 -61.794733 238 68ft 0kts
03-Feb-18 10:09 17.135678 -61.796646 236 76ft 13kts
03-Feb-18 10:10 17.134125 -61.798902 180 83ft 0kts
03-Feb-18 10:11 17.133920 -61.798905 180 81ft 0kts
03-Feb-18 10:12 17.135296 -61.795053 58 136ft 67kts
03-Feb-18 10:13 17.141786 -61.775438 126 1093ft 91kts
03-Feb-18 10:14 17.119309 -61.783965 240 1856ft 116kts
03-Feb-18 10:15 17.100463 -61.811566 230 2529ft 127kts
03-Feb-18 10:16 17.077907 -61.839335 228 2511ft 125kts
03-Feb-18 10:17 17.056310 -61.866063 228 2510ft 120kts
03-Feb-18 10:18 17.034389 -61.893332 228 2512ft 126kts
03-Feb-18 10:19 17.009044 -61.918724 220 2511ft 127kts
03-Feb-18 10:20 16.989266 -61.947238 266 2514ft 126kts
03-Feb-18 10:21 16.976198 -61.978726 230 2517ft 127kts
03-Feb-18 10:22 16.959889 -61.998363 225 2519ft 126kts
03-Feb-18 10:23 16.936619 -62.025189 225 2524ft 126kts
03-Feb-18 10:24 16.913846 -62.051578 224 2528ft 125kts
03-Feb-18 10:25 16.890968 -62.078089 224 2531ft 124kts
03-Feb-18 10:26 16.867783 -62.104943 224 2535ft 124kts
03-Feb-18 10:27 16.845750 -62.130594 224 2173ft 114kts
03-Feb-18 10:28 16.824717 -62.154893 223 1675ft 112kts
03-Feb-18 10:29 16.806278 -62.180373 260 1566ft 107kts
03-Feb-18 10:30 16.805927 -62.209594 245 1332ft 93kts
03-Feb-18 10:31 16.791174 -62.204464 89 822ft 54kts
03-Feb-18 10:32 16.791437 -62.193157 18 542ft 7kts
03-Feb-18 10:33 16.792135 -62.193784 220 542ft 0kts
03-Feb-18 10:34 16.792135 -62.193784 220 542ft 0kts
03-Feb-18 10:35 16.791945 -62.194030 237 542ft 0kts
03-Feb-18 10:36 16.791861 -62.194334 212 542ft 0kts
03-Feb-18 10:37 16.791861 -62.194334 212 542ft 0kts
03-Feb-18 10:38 16.791759 -62.194645 180 542ft 0kts
03-Feb-18 10:39 16.791359 -62.193879 90 543ft 50kts
03-Feb-18 10:40 16.802503 -62.184829 289 1352ft 112kts
03-Feb-18 10:41 16.812870 -62.216831 318 1948ft 118kts
03-Feb-18 10:42 16.837059 -62.238419 324 2554ft 126kts
03-Feb-18 10:43 16.862842 -62.261882 322 2540ft 117kts
03-Feb-18 10:44 16.886514 -62.284326 322 2541ft 114kts
03-Feb-18 10:45 16.910069 -62.306861 322 2541ft 114kts
03-Feb-18 10:46 16.934331 -62.330105 321 2542ft 122kts
03-Feb-18 10:47 16.959199 -62.353929 321 2514ft 122kts
03-Feb-18 10:48 16.984173 -62.377854 321 2511ft 121kts
03-Feb-18 10:49 17.008814 -62.401448 322 2507ft 121kts
03-Feb-18 10:50 17.033337 -62.424949 322 2538ft 120kts
03-Feb-18 10:51 17.057974 -62.448548 322 2533ft 120kts
03-Feb-18 10:52 17.082747 -62.468877 345 2528ft 111kts
03-Feb-18 10:53 17.112039 -62.479105 347 2528ft 117kts
03-Feb-18 10:54 17.143529 -62.489681 347 2525ft 120kts
03-Feb-18 10:55 17.175409 -62.500268 347 2525ft 120kts
03-Feb-18 10:56 17.207262 -62.510753 347 2525ft 120kts
03-Feb-18 10:57 17.237856 -62.520887 348 2521ft 105kts
03-Feb-18 10:58 17.243466 -62.549643 277 1913ft 109kts
03-Feb-18 10:59 17.242279 -62.579107 265 1643ft 106kts
03-Feb-18 11:00 17.238868 -62.610631 275 1408ft 100kts
03-Feb-18 11:01 17.227861 -62.632639 166 1274ft 100kts
03-Feb-18 11:02 17.203680 -62.629119 156 974ft 87kts
03-Feb-18 11:03 17.200187 -62.639205 36 1202ft 87kts
03-Feb-18 11:04 17.205098 -62.615759 84 548ft 79kts
03-Feb-18 11:05 17.205762 -62.594362 82 574ft 71kts
03-Feb-18 11:06 17.218330 -62.590684 274 974ft 107kts
03-Feb-18 11:07 17.217982 -62.620470 219 1042ft 99kts
03-Feb-18 11:08 17.205336 -62.610933 88 398ft 58kts
03-Feb-18 11:09 17.205631 -62.594848 84 52ft 49kts
03-Feb-18 11:10 17.204964 -62.592379 359 39ft 5kts
03-Feb-18 11:11 17.205022 -62.592378 0 38ft 0kts
03-Feb-18 11:12 17.205664 -62.591352 88 38ft 40kts
03-Feb-18 11:13 17.209921 -62.572778 10 630ft 87kts
03-Feb-18 11:15 17.218770 -62.598832 276 1382ft 109kts
03-Feb-18 11:16 17.231248 -62.623894 317 2129ft 107kts
03-Feb-18 11:17 17.252407 -62.647947 317 2497ft 119kts
03-Feb-18 11:18 17.263941 -62.679294 273 2275ft 120kts
03-Feb-18 11:19 17.271708 -62.711892 315 1506ft 111kts
03-Feb-18 11:20 17.289990 -62.730016 332 868ft 75kts
03-Feb-18 11:21 17.305261 -62.728185 58 213ft 49kts
03-Feb-18 11:22 17.307603 -62.723391 244 170ft 0kts
03-Feb-18 11:22 17.307603 -62.723391 244 170ft 0kts
03-Feb-18 11:23 17.307603 -62.723391 244 170ft 0kts
03-Feb-18 11:25 17.307603 -62.723391 244 170ft 0kts
03-Feb-18 11:25 17.307603 -62.723391 244 170ft 0kts
03-Feb-18 11:26 17.307603 -62.723391 244 170ft 0kts
03-Feb-18 11:28 17.307603 -62.723391 244 170ft 0kts
03-Feb-18 11:29 17.307603 -62.723391 244 170ft 0kts
03-Feb-18 11:29 17.307603 -62.723391 244 170ft 0kts
03-Feb-18 11:30 17.307603 -62.723391 244 170ft 0kts
03-Feb-18 11:31 17.307339 -62.723875 263 171ft 0kts
03-Feb-18 11:32 17.307890 -62.723986 55 174ft 4kts
03-Feb-18 11:33 17.316096 -62.710636 56 618ft 79kts
03-Feb-18 11:34 17.335863 -62.711482 326 1382ft 103kts
03-Feb-18 11:35 17.353909 -62.735508 305 2161ft 108kts
03-Feb-18 11:36 17.369871 -62.764329 307 2493ft 122kts
03-Feb-18 11:37 17.387823 -62.794503 307 2486ft 122kts
03-Feb-18 11:38 17.397460 -62.828783 283 2474ft 126kts
03-Feb-18 11:39 17.410121 -62.862135 282 2325ft 129kts
03-Feb-18 11:40 17.416991 -62.897580 290 2085ft 121kts
03-Feb-18 11:41 17.427669 -62.931278 298 1843ft 124kts
03-Feb-18 11:42 17.443551 -62.962951 313 1567ft 121kts
03-Feb-18 11:43 17.463726 -62.985212 326 1249ft 79kts
03-Feb-18 11:44 17.479213 -62.995337 11 654ft 52kts
03-Feb-18 11:45 17.490902 -62.986476 44 231ft 50kts
03-Feb-18 11:46 17.494476 -62.979990 170 130ft 11kts
03-Feb-18 11:47 17.493657 -62.981601 250 137ft 0kts
03-Feb-18 11:48 17.493657 -62.981601 250 137ft 0kts
03-Feb-18 11:49 17.493657 -62.981601 250 137ft 0kts
03-Feb-18 11:50 17.493461 -62.981741 224 138ft 9kts
03-Feb-18 11:51 17.493948 -62.982317 321 137ft 9kts
03-Feb-18 11:52 17.500770 -62.974592 44 410ft 73kts
03-Feb-18 11:53 17.516100 -62.983268 285 1296ft 102kts
03-Feb-18 11:54 17.525387 -63.011817 297 2074ft 109kts
03-Feb-18 11:55 17.536367 -63.042263 301 2445ft 122kts
03-Feb-18 11:56 17.554161 -63.073199 308 2444ft 125kts
03-Feb-18 11:57 17.573163 -63.103923 308 2444ft 125kts
03-Feb-18 11:58 17.592230 -63.134790 308 2445ft 127kts
03-Feb-18 11:59 17.612379 -63.163170 322 2179ft 115kts
03-Feb-18 12:00 17.635299 -63.184511 327 1646ft 109kts
03-Feb-18 12:01 17.653920 -63.209495 314 1104ft 99kts
03-Feb-18 12:02 17.668591 -63.232630 276 888ft 98kts
03-Feb-18 12:03 17.648918 -63.232517 110 469ft 60kts
03-Feb-18 12:04 17.643981 -63.221200 243 113ft 12kts
03-Feb-18 12:05 17.644197 -63.221540 331 117ft 0kts
03-Feb-18 12:06 17.644197 -63.221540 331 117ft 0kts
03-Feb-18 12:07 17.644197 -63.221540 331 117ft 0kts
03-Feb-18 12:08 17.644197 -63.221540 331 117ft 0kts
03-Feb-18 12:09 17.644197 -63.221540 331 117ft 0kts
03-Feb-18 12:10 17.644501 -63.221424 22 115ft 0kts
03-Feb-18 12:11 17.645263 -63.222741 297 126ft 15kts
03-Feb-18 12:12 17.641137 -63.214416 106 344ft 68kts
03-Feb-18 12:13 17.652034 -63.197796 40 1096ft 84kts
03-Feb-18 12:14 17.668804 -63.179808 35 1863ft 88kts
03-Feb-18 12:15 17.686670 -63.162010 55 2457ft 98kts
03-Feb-18 12:16 17.703101 -63.136556 51 2476ft 109kts
03-Feb-18 12:17 17.720857 -63.110706 50 2476ft 110kts
03-Feb-18 12:18 17.738757 -63.084753 54 2478ft 110kts
03-Feb-18 12:19 17.756633 -63.058819 53 2479ft 109kts
03-Feb-18 12:20 17.774521 -63.032857 50 2486ft 109kts
03-Feb-18 12:21 17.794117 -63.008762 41 2484ft 110kts
03-Feb-18 12:22 17.818186 -62.989097 40 2482ft 110kts
03-Feb-18 12:23 17.842190 -62.969269 40 2473ft 110kts
03-Feb-18 12:24 17.865087 -62.947583 41 1990ft 109kts
03-Feb-18 12:25 17.884048 -62.928809 44 1833ft 89kts
03-Feb-18 12:26 17.898708 -62.908783 80 1402ft 79kts
03-Feb-18 12:27 17.900520 -62.887922 77 951ft 50kts
03-Feb-18 12:28 17.901001 -62.872170 63 843ft 53kts
03-Feb-18 12:29 17.903975 -62.855856 78 485ft 60kts
03-Feb-18 12:30 17.904472 -62.841787 90 31ft 11kts
03-Feb-18 12:31 17.904443 -62.843230 269 42ft 25kts
03-Feb-18 12:32 17.903818 -62.844419 261 67ft 0kts
03-Feb-18 12:33 17.903818 -62.844419 261 67ft 0kts
03-Feb-18 12:34 17.903818 -62.844419 261 67ft 0kts
03-Feb-18 12:35 17.903818 -62.844419 261 67ft 0kts
03-Feb-18 12:36 17.903818 -62.844419 261 67ft 0kts
03-Feb-18 12:37 17.903818 -62.844419 261 67ft 0kts

Navigation Log

Ident Type
Flight plan parsing failed, navigation log unavailable